CheckWX is a tool to help pilots better visualize weather data.  It is not intended as a substitute for an official pre-flight weather briefing.

09:43:57 UTC

KOWD METAR
Norwood Memorial Airport
Norwood, Massachusetts, USA
Current

51 mins ago

KOWD 180853Z AUTO 28010KT 10SM CLR 11/04 A2953 RMK AO2 SLP999 T01060039 53021
Observed
Oct-18 @ 08:53 UTC
Wind
  • 280° at 10 KTS
Visibility
10 SM
Flight Rules
VFR
Cloud Levels
  • Clear skies
Temperature
11°C / 52°F
Dewpoint
C / 39°F
Humidity
62%
Altimeter
29.53" Hg
Pressure
1000.02 hPa
Previous

2 hours ago

KOWD 180753Z AUTO 27008KT 10SM CLR 11/04 A2950 RMK AO2 SLP990 T01060039
Observed
Oct-18 @ 07:53 UTC
Wind
  • 270° at 8 KTS
Visibility
10 SM
Flight Rules
VFR
Cloud Levels
  • Clear skies
Temperature
11°C / 52°F
Dewpoint
C / 39°F
Humidity
62%
Altimeter
29.5" Hg
Pressure
999.02 hPa
Previous

3 hours ago

KOWD 180653Z AUTO 27006KT 10SM FEW048 11/04 A2948 RMK AO2 SLP984 T01060039
Observed
Oct-18 @ 06:53 UTC
Wind
  • 270° at 6 KTS
Visibility
10 SM
Flight Rules
VFR
Cloud Levels
  • Few at 4,800' AGL
Temperature
11°C / 52°F
Dewpoint
C / 39°F
Humidity
62%
Altimeter
29.48" Hg
Pressure
998.32 hPa